Time;durP1;ratioP1;P1;durP2;ratioP2;P2;SDS_P1;SDS_P2;PMS_P1;PMS_P2;Temp;Humidity;BMP_temperature;BMP_pressure;BME280_temperature;BME280_humidity;BME280_pressure;Samples;Min_cycle;Max_cycle;Signal;HPM_P1;HPM_P2
2023/07/14 00:01:47;;;;;;;11.15;7.10;;;;;;;32.55;33.76;101108.94;143721;567;47010;-79
2023/07/14 00:04:26;;;;;;;12.80;7.85;;;;;;;32.57;34.07;101114.97;143729;596;46002;-79
2023/07/14 00:06:53;;;;;;;8.57;7.40;;;;;;;32.56;34.16;101109.75;143723;582;47006;-79
2023/07/14 00:09:24;;;;;;;11.70;7.80;;;;;;;32.55;34.35;101108.94;143732;591;45010;-78
2023/07/14 00:11:51;;;;;;;9.90;7.75;;;;;;;32.49;34.53;101115.88;143727;603;47010;-79
2023/07/14 00:14:17;;;;;;;11.43;7.37;;;;;;;32.49;34.54;101108.31;143720;579;48004;-78
2023/07/14 00:16:44;;;;;;;10.00;7.97;;;;;;;32.48;34.49;101101.13;143724;598;47006;-79
2023/07/14 00:19:13;;;;;;;11.95;7.90;;;;;;;32.49;34.30;101108.31;143729;594;48004;-78
2023/07/14 00:21:40;;;;;;;12.43;7.62;;;;;;;32.51;34.28;101106.03;143726;581;47010;-79
2023/07/14 00:24:16;;;;;;;9.18;7.82;;;;;;;32.47;34.09;101109.81;143729;601;46002;-79
2023/07/14 00:26:47;;;;;;;12.40;8.27;;;;;;;32.41;34.15;101105.59;143730;602;45011;-80
2023/07/14 00:29:39;;;;;;;10.85;7.53;;;;;;;32.39;34.35;101107.94;143718;580;53006;-79
2023/07/14 00:32:15;;;;;;;10.63;8.15;;;;;;;32.38;34.72;101106.31;143723;580;47008;-78
2023/07/14 00:34:42;;;;;;;10.93;7.75;;;;;;;32.33;34.78;101110.09;143726;574;47002;-80
2023/07/14 00:37:10;;;;;;;16.98;8.35;;;;;;;32.31;34.76;101104.87;143728;622;45927;-79
2023/07/14 00:39:37;;;;;;;10.27;7.90;;;;;;;32.30;34.94;101102.44;143732;582;45010;-79
2023/07/14 00:42:07;;;;;;;11.90;8.15;;;;;;;32.30;34.74;101102.44;143732;581;45010;-78
2023/07/14 00:44:34;;;;;;;12.85;8.63;;;;;;;32.28;34.50;101102.75;143730;619;45012;-78
2023/07/14 00:47:01;;;;;;;13.93;9.02;;;;;;;32.28;34.73;101094.44;143727;577;47006;-78
2023/07/14 00:49:40;;;;;;;14.38;9.55;;;;;;;32.26;34.75;101102.28;143730;569;47004;-78
2023/07/14 00:52:19;;;;;;;14.68;9.00;;;;;;;32.24;35.15;101092.62;143719;580;47010;-79
2023/07/14 00:54:51;;;;;;;12.05;8.90;;;;;;;32.19;34.94;101099.22;143730;608;45012;-78
2023/07/14 00:57:19;;;;;;;16.58;9.57;;;;;;;32.17;36.13;101104.28;143729;628;45926;-78
2023/07/14 00:59:46;;;;;;;11.55;8.88;;;;;;;32.10;35.57;101102.06;143719;631;56004;-80
2023/07/14 01:02:20;;;;;;;16.90;8.77;;;;;;;32.04;35.96;101114.50;143720;592;47010;-79
2023/07/14 01:05:07;;;;;;;12.82;9.80;;;;;;;32.01;35.93;101106.84;143728;651;47002;-80
2023/07/14 01:07:40;;;;;;;14.45;8.80;;;;;;;31.98;36.23;101113.88;143729;567;45925;-78
2023/07/14 01:10:11;;;;;;;13.88;9.07;;;;;;;31.99;35.70;101104.41;143731;633;46006;-78
2023/07/14 01:12:42;;;;;;;10.48;9.07;;;;;;;31.99;35.89;101109.13;143729;593;45924;-78
2023/07/14 01:15:10;;;;;;;16.37;9.07;;;;;;;31.96;35.66;101107.03;143730;568;45012;-80
2023/07/14 01:17:37;;;;;;;16.33;9.20;;;;;;;31.92;35.93;101104.09;143725;611;47002;-78
2023/07/14 01:20:09;;;;;;;10.60;9.10;;;;;;;31.90;36.19;101100.84;143731;589;46004;-78
2023/07/14 01:23:03;;;;;;;12.02;8.52;;;;;;;31.86;36.09;101103.50;143726;592;47008;-78
2023/07/14 01:25:58;;;;;;;;;;;;;;;31.85;36.04;101089.94;143733;980;46010;-79
2023/07/14 01:28:24;;;;;;;11.77;9.00;;;;;;;31.81;36.12;101092.56;143734;600;45935;-77
2023/07/14 01:30:51;;;;;;;13.95;9.20;;;;;;;31.81;36.22;101084.22;143730;575;47004;-77
2023/07/14 01:33:19;;;;;;;14.00;9.82;;;;;;;31.85;36.49;101087.19;143725;578;48002;-78
2023/07/14 01:35:55;;;;;;;12.40;8.93;;;;;;;31.83;36.62;101079.16;143729;590;46002;-80
2023/07/14 01:38:23;;;;;;;13.73;8.93;;;;;;;31.80;36.82;101090.13;143727;582;46000;-79
2023/07/14 01:40:49;;;;;;;17.95;9.93;;;;;;;31.77;36.76;101088.03;143732;573;45010;-79
2023/07/14 01:43:16;;;;;;;18.50;9.68;;;;;;;31.80;36.93;101082.59;143730;584;45011;-78
2023/07/14 01:45:56;;;;;;;20.75;9.75;;;;;;;31.78;36.69;101082.13;143730;647;45012;-78
2023/07/14 01:48:31;;;;;;;14.13;8.82;;;;;;;31.75;35.16;101077.25;143729;572;45926;-78
2023/07/14 01:51:04;;;;;;;11.85;8.48;;;;;;;31.77;35.57;101079.69;143727;569;48000;-78
2023/07/14 01:54:04;;;;;;;17.17;8.60;;;;;;;31.70;35.65;101075.47;143726;641;47008;-80
2023/07/14 01:56:34;;;;;;;17.98;8.27;;;;;;;31.68;34.44;101074.94;143730;619;46002;-79
2023/07/14 01:59:16;;;;;;;12.68;8.45;;;;;;;31.64;34.84;101076.78;143728;575;45925;-78
2023/07/14 02:01:46;;;;;;;12.60;8.48;;;;;;;31.68;34.94;101076.94;143732;615;45010;-79
2023/07/14 02:04:24;;;;;;;11.43;8.38;;;;;;;31.62;35.12;101076.31;143729;612;45924;-79
2023/07/14 02:06:50;;;;;;;9.63;8.25;;;;;;;31.62;35.26;101076.31;143729;582;46002;-80
2023/07/14 02:09:28;;;;;;;12.77;8.55;;;;;;;31.61;35.36;101072.69;143729;614;45926;-78
2023/07/14 02:12:03;;;;;;;10.90;8.65;;;;;;;31.63;35.50;101077.09;143729;581;48002;-79
2023/07/14 02:14:40;;;;;;;12.95;8.63;;;;;;;31.59;35.56;101065.88;143729;708;45923;-79
2023/07/14 02:17:16;;;;;;;14.60;8.48;;;;;;;31.57;35.07;101066.22;143729;605;45928;-79
2023/07/14 02:19:43;;;;;;;12.95;8.00;;;;;;;31.57;35.21;101071.75;143726;576;47007;-78
2023/07/14 02:22:10;;;;;;;11.60;8.88;;;;;;;31.43;35.54;101071.97;143731;615;46015;-79
2023/07/14 02:24:37;;;;;;;13.48;8.15;;;;;;;31.45;35.40;101069.69;143723;619;47000;-79
2023/07/14 02:27:04;;;;;;;14.32;8.40;;;;;;;31.48;35.42;101059.88;143730;569;46570;-78
2023/07/14 02:29:31;;;;;;;11.63;8.10;;;;;;;31.48;35.85;101053.50;143727;568;46006;-78
2023/07/14 02:32:21;;;;;;;10.68;8.77;;;;;;;31.44;35.84;101059.72;143728;614;47004;-78
2023/07/14 02:34:57;;;;;;;12.63;8.45;;;;;;;31.43;35.62;101062.81;143729;640;45924;-77
2023/07/14 02:38:01;;;;;;;11.77;8.82;;;;;;;31.39;35.73;101050.78;143727;584;47002;-79
2023/07/14 02:40:50;;;;;;;13.20;8.48;;;;;;;31.38;36.04;101049.94;143729;662;45926;-79
2023/07/14 02:43:19;;;;;;;12.23;8.82;;;;;;;31.40;35.83;101058.75;143754;575;46009;-78
2023/07/14 02:46:13;;;;;;;11.15;8.10;;;;;;;31.41;35.49;101062.38;143755;581;45924;-78
2023/07/14 02:48:49;;;;;;;11.80;8.77;;;;;;;31.36;35.34;101057.00;143758;605;45002;-78
2023/07/14 02:51:16;;;;;;;11.65;8.02;;;;;;;31.39;35.49;101056.34;143757;720;45006;-80
2023/07/14 02:53:43;;;;;;;18.15;8.18;;;;;;;31.40;35.72;101063.50;143761;579;44010;-78
2023/07/14 02:56:10;;;;;;;10.35;8.25;;;;;;;31.35;35.93;101060.91;143755;581;46008;-78
2023/07/14 02:58:37;;;;;;;12.55;9.45;;;;;;;31.38;36.09;101063.03;143757;576;45928;-78
2023/07/14 03:01:05;;;;;;;11.98;8.13;;;;;;;31.38;36.62;101060.25;143747;583;52926;-79
2023/07/14 03:03:33;;;;;;;13.77;8.68;;;;;;;31.36;36.68;101059.75;143761;573;44010;-77
2023/07/14 03:06:00;;;;;;;18.02;8.80;;;;;;;31.32;36.83;101067.94;143756;665;45924;-78
2023/07/14 03:08:28;;;;;;;19.83;8.32;;;;;;;31.31;37.05;101074.66;143758;582;44927;-79
2023/07/14 03:11:00;;;;;;;15.07;8.65;;;;;;;31.29;36.81;101080.50;143756;615;45926;-79
2023/07/14 03:13:26;;;;;;;15.30;8.93;;;;;;;31.31;36.89;101074.66;143752;558;52002;-78
2023/07/14 03:15:53;;;;;;;14.77;8.05;;;;;;;31.32;36.60;101076.28;143743;586;49924;-79
2023/07/14 03:18:20;;;;;;;19.75;8.50;;;;;;;31.32;36.08;101081.81;143757;659;46002;-79
2023/07/14 03:20:47;;;;;;;13.00;7.72;;;;;;;31.30;35.56;101076.59;143751;675;46006;-78
2023/07/14 03:23:15;;;;;;;15.88;8.20;;;;;;;31.25;36.19;101085.09;143761;572;44010;-79
2023/07/14 03:25:41;;;;;;;15.85;8.38;;;;;;;31.26;36.18;101083.94;143755;594;45924;-78
2023/07/14 03:28:08;;;;;;;15.13;7.93;;;;;;;31.22;35.71;101073.84;143758;621;45002;-80
2023/07/14 03:30:39;;;;;;;14.80;8.10;;;;;;;31.26;36.39;101080.38;143752;616;46006;-78
2023/07/14 03:33:06;;;;;;;14.70;8.27;;;;;;;31.28;35.28;101081.66;143758;567;45006;-80
2023/07/14 03:35:33;;;;;;;14.43;8.60;;;;;;;31.26;35.92;101077.59;143757;587;45923;-79
2023/07/14 03:38:00;;;;;;;14.63;8.88;;;;;;;31.29;35.88;101076.94;143758;588;44928;-78
2023/07/14 03:40:27;;;;;;;21.90;10.02;;;;;;;31.29;36.03;101074.97;143755;639;45926;-79
2023/07/14 03:42:53;;;;;;;14.30;8.38;;;;;;;31.33;36.21;101083.44;143734;567;46002;-78
2023/07/14 03:45:21;;;;;;;14.70;8.88;;;;;;;31.33;36.23;101080.66;143728;583;46012;-75
2023/07/14 03:47:48;;;;;;;19.25;8.50;;;;;;;31.31;36.22;101082.97;143722;567;47007;-78
2023/07/14 03:50:16;;;;;;;11.95;8.23;;;;;;;31.30;36.49;101084.91;143724;595;46008;-79
2023/07/14 03:52:43;;;;;;;14.00;8.85;;;;;;;31.29;36.76;101086.06;143729;611;47002;-79
2023/07/14 03:55:11;;;;;;;15.15;8.50;;;;;;;31.32;36.82;101084.59;143729;583;45926;-79
2023/07/14 03:57:37;;;;;;;14.48;8.30;;;;;;;31.33;36.89;101085.41;143725;573;47012;-78
2023/07/14 04:00:13;;;;;;;16.70;8.00;;;;;;;31.30;36.84;101084.91;143727;607;45924;-77
2023/07/14 04:02:42;;;;;;;14.32;8.10;;;;;;;31.27;36.75;101082.78;143731;622;46002;-79
2023/07/14 04:05:09;;;;;;;16.27;7.95;;;;;;;31.31;36.43;101088.53;143724;622;47010;-78
2023/07/14 04:07:38;;;;;;;15.43;8.52;;;;;;;31.27;36.70;101084.78;143727;582;47006;-79
2023/07/14 04:10:06;;;;;;;16.33;7.95;;;;;;;31.29;36.40;101091.59;143727;660;46004;-78
2023/07/14 04:12:33;;;;;;;14.02;8.05;;;;;;;31.29;36.38;101086.06;143732;592;46010;-78
2023/07/14 04:15:00;;;;;;;17.17;8.90;;;;;;;31.28;36.42;101089.97;143730;576;45926;-79
2023/07/14 04:17:28;;;;;;;23.60;8.98;;;;;;;31.33;36.77;101088.19;143728;635;48006;-80
2023/07/14 04:19:54;;;;;;;20.15;10.15;;;;;;;31.33;36.57;101082.62;143730;588;45923;-78
2023/07/14 04:22:21;;;;;;;16.00;8.70;;;;;;;31.35;36.61;101083.91;143732;677;46006;-78
2023/07/14 04:24:48;;;;;;;17.70;10.75;;;;;;;31.34;37.12;101092.59;143730;584;45926;-79
2023/07/14 04:27:18;;;;;;;18.60;9.85;;;;;;;31.35;36.77;101097.78;143727;593;48004;-79
2023/07/14 04:29:45;;;;;;;16.37;9.88;;;;;;;31.45;37.21;101108.56;143724;580;46008;-80
2023/07/14 04:32:12;;;;;;;14.18;8.65;;;;;;;31.51;36.84;101106.41;143731;623;47006;-79
2023/07/14 04:34:39;;;;;;;11.55;8.18;;;;;;;31.51;36.27;101109.19;143721;616;50006;-79
2023/07/14 04:37:07;;;;;;;12.68;8.43;;;;;;;31.52;36.62;101115.53;143727;591;48006;-79
2023/07/14 04:39:33;;;;;;;13.88;9.43;;;;;;;31.57;36.89;101113.41;143726;595;48009;-79
2023/07/14 04:42:00;;;;;;;14.63;9.15;;;;;;;31.61;36.37;101114.34;143729;602;47006;-80
2023/07/14 04:44:27;;;;;;;11.43;8.65;;;;;;;31.67;36.50;101117.78;143728;652;48012;-79
2023/07/14 04:46:54;;;;;;;14.93;9.25;;;;;;;31.69;36.96;101117.44;143728;596;47007;-79
2023/07/14 04:49:21;;;;;;;19.55;9.60;;;;;;;31.75;37.15;101124.47;143724;568;47008;-79
2023/07/14 04:51:47;;;;;;;17.62;9.52;;;;;;;31.80;36.53;101121.47;143732;608;46004;-78
2023/07/14 04:54:14;;;;;;;14.27;8.90;;;;;;;31.81;36.48;101117.56;143716;568;53006;-79
2023/07/14 04:56:43;;;;;;;19.95;9.10;;;;;;;31.86;36.00;101111.03;143729;588;45930;-77
2023/07/14 04:59:10;;;;;;;18.80;9.07;;;;;;;31.92;35.76;101112.44;143723;618;47008;-79
2023/07/14 05:01:37;;;;;;;20.25;9.23;;;;;;;31.96;36.74;101116.19;143733;567;45011;-79
2023/07/14 05:04:04;;;;;;;13.15;9.25;;;;;;;32.01;35.79;101112.41;143721;632;47013;-77
2023/07/14 05:06:31;;;;;;;23.17;11.30;;;;;;;32.09;35.64;101108.75;143731;598;45012;-78
2023/07/14 05:08:58;;;;;;;17.02;9.45;;;;;;;32.14;36.14;101116.88;143723;579;47008;-78
2023/07/14 05:11:26;;;;;;;18.27;10.57;;;;;;;32.20;35.70;101109.97;143730;656;48006;-78
2023/07/14 05:13:53;;;;;;;15.63;9.68;;;;;;;32.28;35.45;101113.09;143723;599;48010;-79
2023/07/14 05:16:21;;;;;;;16.58;9.80;;;;;;;32.30;35.49;101119.91;143729;615;46004;-79
2023/07/14 05:18:48;;;;;;;15.90;10.55;;;;;;;32.34;36.19;101112.53;143730;615;46008;-79
2023/07/14 05:21:15;;;;;;;18.55;10.00;;;;;;;32.39;36.35;101113.50;143729;574;47006;-78
2023/07/14 05:23:41;;;;;;;16.75;9.68;;;;;;;32.39;36.84;101110.72;143728;708;48011;-79
2023/07/14 05:26:08;;;;;;;18.33;10.38;;;;;;;32.42;36.46;101107.25;143727;605;47006;-79
2023/07/14 05:28:35;;;;;;;20.05;9.95;;;;;;;32.47;36.29;101104.25;143728;572;47002;-78
2023/07/14 05:31:04;;;;;;;15.15;8.52;;;;;;;32.50;35.51;101095.25;143733;589;45011;-79
2023/07/14 05:33:31;;;;;;;18.30;11.10;;;;;;;32.57;35.83;101108.59;143731;613;45925;-78
2023/07/14 05:35:58;;;;;;;24.87;10.63;;;;;;;32.62;35.54;101108.41;143731;572;45012;-79
2023/07/14 05:38:26;;;;;;;17.15;10.02;;;;;;;32.64;35.66;101106.91;143730;591;45924;-79
2023/07/14 05:40:56;;;;;;;19.67;9.75;;;;;;;32.63;35.65;101104.47;143720;605;48007;-79
2023/07/14 05:43:24;;;;;;;17.30;10.43;;;;;;;32.68;35.03;101103.44;143729;592;46012;-78
2023/07/14 05:45:51;;;;;;;16.10;9.80;;;;;;;32.75;35.22;101107.28;143731;621;45930;-79
2023/07/14 05:48:18;;;;;;;16.50;10.40;;;;;;;32.80;34.46;101107.09;143730;638;45924;-78
2023/07/14 05:50:45;;;;;;;16.98;10.48;;;;;;;32.88;34.57;101110.16;143730;643;47004;-77
2023/07/14 05:53:13;;;;;;;16.25;10.80;;;;;;;32.96;34.83;101106.47;143730;573;46028;-78
2023/07/14 05:55:40;;;;;;;16.35;10.38;;;;;;;32.97;34.45;101116.47;143731;629;46004;-79
2023/07/14 05:58:07;;;;;;;13.80;10.20;;;;;;;32.99;33.98;101113.31;143731;589;45924;-75
2023/07/14 06:00:40;;;;;;;20.15;10.50;;;;;;;33.00;34.26;101110.22;143722;610;53002;-75
2023/07/14 06:03:10;;;;;;;;;;;;;;;33.06;33.97;101114.38;143734;968;46010;-79
2023/07/14 06:05:37;;;;;;;16.00;10.68;;;;;;;33.13;33.32;101110.22;143732;577;47004;-79
2023/07/14 06:08:04;;;;;;;13.73;10.00;;;;;;;33.20;33.28;101107.69;143731;609;45925;-78
2023/07/14 06:10:32;;;;;;;12.52;9.57;;;;;;;33.29;33.26;101096.44;143731;591;47002;-79
2023/07/14 06:13:04;;;;;;;;;;;;;;;33.36;34.58;101114.25;143734;984;45926;-79
2023/07/14 06:15:31;;;;;;;14.18;10.68;;;;;;;33.42;33.71;101100.94;143720;588;52004;-80
2023/07/14 06:17:57;;;;;;;13.68;10.98;;;;;;;33.46;33.23;101090.69;143731;619;45925;-80
2023/07/14 06:20:24;;;;;;;14.90;10.35;;;;;;;33.53;32.99;101087.38;143733;622;45010;-80
2023/07/14 06:22:52;;;;;;;20.40;11.45;;;;;;;33.60;32.59;101090.38;143731;594;45926;-80
2023/07/14 06:25:19;;;;;;;19.73;10.57;;;;;;;33.66;33.27;101079.81;143730;569;45930;-79
2023/07/14 06:27:45;;;;;;;16.75;12.90;;;;;;;33.71;32.95;101085.94;143731;712;45924;-79
2023/07/14 06:30:13;;;;;;;17.90;11.07;;;;;;;33.79;32.65;101086.19;143734;609;45010;-80
2023/07/14 06:32:39;;;;;;;18.70;11.20;;;;;;;33.88;33.31;101088.84;143731;652;46013;-79
2023/07/14 06:35:08;;;;;;;16.12;12.13;;;;;;;33.88;32.41;101086.91;143730;569;47004;-79
2023/07/14 06:37:34;;;;;;;25.83;12.27;;;;;;;33.95;31.95;101087.13;143728;617;47008;-79
2023/07/14 06:40:03;;;;;;;20.95;12.07;;;;;;;34.03;32.24;101084.59;143732;908;47007;-79
2023/07/14 06:42:31;;;;;;;34.13;14.27;;;;;;;34.08;32.18;101084.31;143733;685;47010;-79
2023/07/14 06:44:57;;;;;;;21.48;13.15;;;;;;;34.13;31.83;101075.72;143738;597;45930;-80
2023/07/14 06:47:25;;;;;;;23.23;12.18;;;;;;;34.17;31.50;101085.81;143736;785;46005;-80
2023/07/14 06:49:52;;;;;;;16.40;11.73;;;;;;;34.23;32.24;101078.03;143741;631;45010;-78
2023/07/14 06:52:19;;;;;;;23.70;13.38;;;;;;;34.29;33.16;101084.97;143737;577;46010;-79
2023/07/14 06:54:46;;;;;;;20.00;13.13;;;;;;;34.28;34.63;101088.13;143738;607;45931;-79
2023/07/14 06:57:13;;;;;;;20.60;12.90;;;;;;;34.27;35.89;101089.28;143738;595;45924;-80
2023/07/14 06:59:41;;;;;;;27.33;13.32;;;;;;;34.27;36.07;101089.28;143741;566;45010;-80
2023/07/14 07:02:11;;;;;;;22.52;12.88;;;;;;;34.24;35.93;101084.41;143738;637;45926;-79
2023/07/14 07:04:38;;;;;;;18.98;13.38;;;;;;;34.27;36.42;101090.09;143709;616;59012;-79
2023/07/14 07:07:05;;;;;;;21.10;13.10;;;;;;;34.31;36.01;101091.00;143738;573;45925;-78
2023/07/14 07:09:33;;;;;;;21.05;13.40;;;;;;;34.39;36.18;101094.81;143727;715;51004;-79
2023/07/14 07:12:00;;;;;;;30.77;14.50;;;;;;;34.45;35.79;101087.03;143736;630;46029;-81
2023/07/14 07:14:28;;;;;;;22.58;12.98;;;;;;;34.53;36.10;101088.88;143737;895;46004;-78
2023/07/14 07:16:55;;;;;;;17.75;11.98;;;;;;;34.61;34.90;101087.09;143737;568;45925;-80
2023/07/14 07:19:22;;;;;;;24.48;12.10;;;;;;;34.68;35.63;101092.06;143742;626;45010;-81
2023/07/14 07:21:49;;;;;;;16.00;12.48;;;;;;;34.65;36.20;101095.56;143736;595;46010;-79
2023/07/14 07:24:17;;;;;;;17.65;11.55;;;;;;;34.69;36.41;101096.50;143739;597;45012;-79
2023/07/14 07:26:44;;;;;;;18.37;11.07;;;;;;;34.70;37.05;101082.19;143729;577;47004;-79
2023/07/14 07:29:11;;;;;;;17.95;11.82;;;;;;;34.79;37.23;101095.97;143731;589;48002;-80
2023/07/14 07:31:38;;;;;;;20.48;12.00;;;;;;;34.80;37.31;101091.22;143738;591;45926;-81
2023/07/14 07:34:05;;;;;;;18.45;11.93;;;;;;;34.83;38.10;101088.50;143739;596;45012;-80
2023/07/14 07:36:32;;;;;;;19.27;12.02;;;;;;;34.82;37.93;101086.88;143737;587;46006;-80
2023/07/14 07:38:59;;;;;;;21.90;13.15;;;;;;;34.80;38.01;101096.78;143740;580;46008;-81
2023/07/14 07:41:27;;;;;;;23.17;12.90;;;;;;;34.79;37.43;101095.97;143736;612;45926;-81
2023/07/14 07:43:54;;;;;;;17.35;12.02;;;;;;;34.83;37.98;101094.09;143730;616;47004;-82
2023/07/14 07:46:21;;;;;;;16.67;12.13;;;;;;;34.89;40.32;101092.69;143731;588;45925;-85
2023/07/14 07:48:49;;;;;;;23.60;12.40;;;;;;;34.95;39.65;101095.25;143728;589;47006;-81
2023/07/14 07:51:17;;;;;;;20.98;14.13;;;;;;;34.99;39.12;101096.97;143729;579;47012;-80
2023/07/14 07:53:44;;;;;;;18.85;12.75;;;;;;;35.09;39.34;101083.63;143729;599;47006;-81
2023/07/14 07:56:11;;;;;;;17.17;13.02;;;;;;;35.12;38.88;101086.53;143731;598;45925;-81
2023/07/14 07:58:38;;;;;;;19.67;12.40;;;;;;;35.10;39.00;101091.66;143729;572;48004;-80
2023/07/14 08:01:07;;;;;;;14.95;11.00;;;;;;;35.13;37.65;101095.72;143732;601;45018;-82
2023/07/14 08:03:36;;;;;;;14.95;10.77;;;;;;;35.14;37.29;101095.34;143729;627;47004;-81
2023/07/14 08:06:05;;;;;;;14.63;10.73;;;;;;;35.15;37.40;101088.59;143731;568;45924;-80
2023/07/14 08:08:33;;;;;;;12.23;10.90;;;;;;;35.22;37.36;101086.00;143734;579;45010;-81
2023/07/14 08:11:00;;;;;;;14.05;10.70;;;;;;;35.19;37.27;101080.34;143731;615;45927;-82
2023/07/14 08:13:29;;;;;;;14.93;11.82;;;;;;;35.29;38.60;101084.56;143728;596;47004;-81
2023/07/14 08:15:56;;;;;;;21.23;11.32;;;;;;;35.36;38.08;101082.75;143727;588;48920;-81
2023/07/14 08:18:24;;;;;;;13.00;10.00;;;;;;;35.47;37.83;101087.81;143729;579;47006;-80
2023/07/14 08:20:51;;;;;;;14.23;11.85;;;;;;;35.60;38.23;101092.13;143726;598;48012;-81
2023/07/14 08:23:20;;;;;;;15.35;11.50;;;;;;;35.73;37.81;101097.63;143727;747;47004;-81
2023/07/14 08:25:59;;;;;;;15.40;10.38;;;;;;;35.75;37.22;101092.47;143726;690;47008;-80
2023/07/14 08:28:26;;;;;;;16.35;11.82;;;;;;;35.80;36.44;101089.41;143731;604;47004;-81
2023/07/14 08:30:55;;;;;;;12.80;9.70;;;;;;;35.82;35.82;101084.25;143729;577;47012;-81
2023/07/14 08:33:23;;;;;;;13.70;9.70;;;;;;;35.69;36.04;101083.56;143729;570;48004;-80
2023/07/14 08:35:50;;;;;;;12.57;9.60;;;;;;;35.71;36.89;101089.59;143731;642;45923;-81
2023/07/14 08:38:17;;;;;;;12.63;9.32;;;;;;;35.69;37.72;101099.53;143733;577;46004;-82
2023/07/14 08:40:52;;;;;;;15.68;9.98;;;;;;;35.62;37.38;101094.59;143734;568;45927;-81
2023/07/14 08:43:48;;;;;;;14.07;9.82;;;;;;;35.58;37.26;101096.47;143728;582;47006;-82
2023/07/14 08:46:28;;;;;;;15.65;9.68;;;;;;;35.60;36.42;101092.13;143730;574;45924;-81
2023/07/14 08:49:20;;;;;;;12.95;9.50;;;;;;;35.53;36.37;101089.19;143726;617;47004;-82
2023/07/14 08:51:58;;;;;;;13.60;9.85;;;;;;;35.50;36.43;101090.69;143731;572;45926;-82
2023/07/14 08:54:30;;;;;;;17.27;10.02;;;;;;;35.53;36.78;101094.78;143726;592;51006;-83
2023/07/14 08:56:58;;;;;;;16.00;9.80;;;;;;;35.66;36.10;101090.69;143731;623;45924;-84
2023/07/14 08:59:38;;;;;;;13.43;9.77;;;;;;;35.82;35.80;101087.06;143724;587;48002;-82
2023/07/14 09:02:31;;;;;;;11.50;9.02;;;;;;;35.86;33.63;101089.94;143732;569;45926;-83
2023/07/14 09:05:32;;;;;;;10.50;8.77;;;;;;;35.90;32.84;101079.66;143727;575;47006;-82
2023/07/14 09:07:59;;;;;;;12.40;9.40;;;;;;;36.03;33.56;101078.38;143730;589;46008;-81
2023/07/14 09:10:52;;;;;;;13.45;9.32;;;;;;;36.06;32.31;101076.84;143732;609;47004;-81
2023/07/14 09:13:43;;;;;;;12.75;9.57;;;;;;;36.10;33.39;101067.34;143731;590;45926;-80
2023/07/14 09:16:12;;;;;;;17.58;10.38;;;;;;;36.26;33.43;101077.66;143732;569;45012;-81
2023/07/14 09:19:07;;;;;;;14.82;9.55;;;;;;;36.42;33.66;101067.22;143723;588;45926;-81
2023/07/14 09:22:30;;;;;;;11.75;9.75;;;;;;;36.64;33.83;101072.47;143732;568;47002;-81
2023/07/14 09:25:21;;;;;;;13.37;10.83;;;;;;;36.71;32.25;101059.41;143729;598;46011;-83
2023/07/14 09:27:50;;;;;;;15.88;9.52;;;;;;;36.70;31.55;101062.59;143725;572;48004;-82
2023/07/14 09:30:23;;;;;;;16.70;10.18;;;;;;;36.70;31.41;101062.59;143731;635;45926;-83
2023/07/14 09:33:03;;;;;;;13.93;9.90;;;;;;;36.72;31.42;101063.81;143724;583;48000;-82
2023/07/14 09:35:31;;;;;;;16.55;10.45;;;;;;;36.82;31.56;101062.41;143731;596;45923;-84
2023/07/14 09:38:15;;;;;;;14.85;11.15;;;;;;;37.00;31.39;101057.19;143727;643;49002;-84
2023/07/14 09:40:46;;;;;;;12.30;10.27;;;;;;;37.10;30.79;101055.75;143729;609;45923;-82
2023/07/14 09:43:12;;;;;;;13.93;10.10;;;;;;;37.21;31.06;101052.31;143727;576;48002;-83
2023/07/14 09:45:40;;;;;;;15.63;10.70;;;;;;;37.33;31.26;101052.12;143728;594;46012;-82
2023/07/14 09:48:18;;;;;;;13.93;10.73;;;;;;;37.31;30.20;101052.50;143729;686;46006;-82
2023/07/14 09:51:11;;;;;;;16.90;10.25;;;;;;;37.44;30.25;101049.50;143731;576;45926;-81
2023/07/14 09:53:39;;;;;;;15.20;9.67;;;;;;;37.42;30.13;101052.69;143734;599;45010;-82
2023/07/14 09:56:17;;;;;;;12.50;9.82;;;;;;;37.56;30.80;101049.31;143730;572;45930;-82
2023/07/14 09:58:59;;;;;;;21.15;10.65;;;;;;;37.64;31.03;101050.22;143731;576;45932;-84
2023/07/14 10:01:25;;;;;;;13.35;10.43;;;;;;;37.74;30.19;101046.78;143727;573;46009;-82
2023/07/14 10:03:56;;;;;;;16.33;10.55;;;;;;;37.67;30.02;101043.87;143731;573;48004;-81
2023/07/14 10:06:32;;;;;;;16.92;13.05;;;;;;;37.62;29.98;101047.78;143732;710;45012;-82
2023/07/14 10:09:11;;;;;;;15.15;10.90;;;;;;;37.72;30.20;101037.13;143724;572;50004;-82
2023/07/14 10:11:50;;;;;;;16.90;13.98;;;;;;;37.78;29.40;101035.59;143727;569;47008;-83
2023/07/14 10:14:26;;;;;;;14.30;9.75;;;;;;;37.83;28.92;101037.28;143734;575;45011;-82
2023/07/14 10:16:54;;;;;;;19.58;11.02;;;;;;;37.83;29.07;101026.06;143728;579;47010;-82
2023/07/14 10:19:23;;;;;;;16.40;10.68;;;;;;;37.90;28.49;101026.19;143726;574;47006;-83
2023/07/14 10:21:59;;;;;;;13.40;9.70;;;;;;;38.05;28.83;101032.78;143726;632;47008;-83
2023/07/14 10:24:28;;;;;;;13.77;10.75;;;;;;;38.03;29.24;101030.37;143732;597;46019;-85
2023/07/14 10:27:15;;;;;;;14.82;10.25;;;;;;;38.02;29.48;101033.56;143726;587;47010;-85
2023/07/14 10:30:31;;;;;;;15.20;9.43;;;;;;;38.04;30.60;101025.56;143731;579;46004;-81
2023/07/14 10:33:01;;;;;;;16.70;9.75;;;;;;;38.16;31.01;101024.53;143726;569;46008;-85
2023/07/14 10:35:30;;;;;;;14.75;9.27;;;;;;;38.10;31.45;101023.22;143726;577;47004;-84
2023/07/14 10:38:11;;;;;;;14.52;9.82;;;;;;;38.06;31.72;101028.81;143724;691;49004;-84
2023/07/14 10:40:44;;;;;;;13.60;10.23;;;;;;;38.08;31.67;101020.81;143731;567;45932;-83
2023/07/14 10:43:39;;;;;;;16.02;8.77;;;;;;;37.92;31.52;101029.41;143751;618;51025;-84
2023/07/14 10:46:13;;;;;;;13.07;9.45;;;;;;;37.90;31.81;101027.00;143757;669;46002;-84
2023/07/14 10:49:07;;;;;;;12.48;9.70;;;;;;;37.92;31.95;101013.41;143753;622;48010;-84
2023/07/14 10:51:48;;;;;;;14.10;9.73;;;;;;;38.05;32.49;101013.97;143755;633;46006;-83
2023/07/14 10:54:36;;;;;;;13.43;9.70;;;;;;;37.95;33.31;101016.66;143755;590;45926;-84
2023/07/14 10:57:24;;;;;;;15.70;9.13;;;;;;;37.99;33.43;101012.69;143761;583;44010;-82
2023/07/14 11:00:28;;;;;;;13.45;9.75;;;;;;;38.14;32.38;101007.25;143747;607;48011;-83
2023/07/14 11:03:43;;;;;;;10.63;9.48;;;;;;;38.21;31.82;101010.97;143755;586;45010;-84
2023/07/14 11:06:31;;;;;;;10.75;9.65;;;;;;;38.27;32.36;101010.63;143757;573;45008;-83
2023/07/14 11:08:58;;;;;;;14.07;10.30;;;;;;;38.32;32.08;101005.47;143760;574;44010;-84
2023/07/14 11:11:50;;;;;;;13.93;9.68;;;;;;;38.43;31.78;101007.59;143759;572;44012;-83
2023/07/14 11:14:45;;;;;;;13.93;9.90;;;;;;;38.52;32.48;101005.31;143753;702;46006;-83
2023/07/14 11:17:50;;;;;;;10.60;9.52;;;;;;;38.42;32.13;101003.19;143753;577;46008;-83
2023/07/14 11:20:55;;;;;;;16.35;9.32;;;;;;;38.38;32.00;101005.97;143757;591;45004;-83
2023/07/14 11:23:51;;;;;;;11.07;9.40;;;;;;;38.43;32.58;101002.81;143757;585;45930;-82
2023/07/14 11:26:43;;;;;;;11.50;8.70;;;;;;;38.40;33.00;100991.53;143731;665;47006;-83
2023/07/14 11:29:18;;;;;;;12.75;9.48;;;;;;;38.44;31.34;100993.22;143734;687;50008;-82
2023/07/14 11:31:57;;;;;;;12.68;9.93;;;;;;;38.57;31.08;100987.31;143738;694;46007;-83
2023/07/14 11:34:59;;;;;;;11.20;8.82;;;;;;;38.70;30.75;100993.47;143736;718;45929;-84
2023/07/14 11:38:13;;;;;;;13.15;10.00;;;;;;;38.76;30.26;100991.91;143735;589;47004;-85
2023/07/14 11:40:43;;;;;;;11.50;8.70;;;;;;;38.72;29.33;100985.47;143736;578;45926;-83